createdAt,value
2018-12-07T15:56:41.400Z,11.80
2018-12-07T15:57:41.311Z,11.83
2018-12-07T15:58:41.367Z,11.81
2018-12-07T15:59:41.552Z,11.72
2018-12-07T16:00:41.605Z,11.75
2018-12-07T16:01:41.701Z,11.72
2018-12-07T16:02:41.812Z,11.77
2018-12-07T16:03:41.895Z,11.73
2018-12-07T16:04:41.810Z,11.70
2018-12-07T16:05:42.025Z,11.72
2018-12-07T16:06:42.080Z,11.77
2018-12-07T16:07:41.969Z,11.73
2018-12-07T16:08:41.971Z,11.77
2018-12-07T16:09:42.033Z,11.69
2018-12-07T16:10:48.837Z,11.66
2018-12-07T16:11:42.386Z,11.50
2018-12-07T16:12:42.199Z,11.52
2018-12-07T16:13:42.267Z,11.52
2018-12-07T16:14:42.410Z,11.57
2018-12-07T16:15:42.433Z,11.51
2018-12-07T16:16:42.687Z,11.52
2018-12-07T16:17:42.657Z,11.51
2018-12-07T16:18:42.691Z,11.50
2018-12-07T16:19:42.891Z,11.48
2018-12-07T16:20:42.911Z,11.55
2018-12-07T16:21:42.936Z,11.50
2018-12-07T16:22:43.112Z,11.47
2018-12-07T16:23:42.941Z,11.57
2018-12-07T16:24:42.945Z,11.50
2018-12-07T16:25:43.005Z,11.51
2018-12-07T16:26:43.336Z,11.47
2018-12-07T16:27:43.133Z,11.48
2018-12-07T16:28:43.232Z,11.44
2018-12-07T16:29:43.336Z,11.50
2018-12-07T16:30:43.327Z,11.52
2018-12-07T16:31:43.613Z,11.30
2018-12-07T16:32:43.454Z,11.57
2018-12-07T16:33:43.571Z,11.44
2018-12-07T16:34:43.602Z,11.51
2018-12-07T16:35:43.673Z,11.45
2018-12-07T16:36:43.842Z,11.32
2018-12-07T16:37:43.876Z,11.40
2018-12-07T16:38:43.845Z,11.45
2018-12-07T16:39:44.092Z,11.47
2018-12-07T16:40:44.079Z,11.33
2018-12-07T16:41:44.078Z,11.48
2018-12-07T16:42:44.073Z,11.37
2018-12-07T16:43:44.140Z,11.40
2018-12-07T16:44:44.262Z,11.33
2018-12-07T16:45:44.466Z,11.41
2018-12-07T16:46:44.786Z,11.41
2018-12-07T16:47:44.467Z,11.41
2018-12-07T16:48:44.603Z,11.37
2018-12-07T16:49:44.501Z,11.37
2018-12-07T16:50:44.649Z,11.41
2018-12-07T16:51:44.635Z,11.41
2018-12-07T16:52:44.876Z,11.35
2018-12-07T16:53:44.812Z,11.43
2018-12-07T16:54:44.875Z,11.37
2018-12-07T16:55:44.922Z,11.44
2018-12-07T16:56:45.204Z,11.41
2018-12-07T16:57:45.258Z,11.41
2018-12-07T16:58:45.099Z,11.40
2018-12-07T16:59:45.138Z,11.37
2018-12-07T17:00:45.506Z,11.43
2018-12-07T17:01:45.537Z,11.43
2018-12-07T17:02:45.396Z,11.41
2018-12-07T17:03:45.374Z,11.41
2018-12-07T17:04:45.502Z,11.35
2018-12-07T17:05:45.498Z,11.43
2018-12-07T17:06:45.870Z,11.36
2018-12-07T17:07:45.630Z,11.41
2018-12-07T17:08:45.832Z,11.37
2018-12-07T17:09:45.747Z,11.40
2018-12-07T17:10:45.902Z,11.40
2018-12-07T17:11:45.942Z,11.37
2018-12-07T17:12:46.042Z,11.45
2018-12-07T17:13:45.998Z,11.37
2018-12-07T17:14:46.113Z,11.48
2018-12-07T17:15:46.439Z,11.44
2018-12-07T17:16:46.431Z,11.40
2018-12-07T17:17:46.247Z,11.48
2018-12-07T17:18:46.637Z,11.44
2018-12-07T17:19:46.610Z,11.47
2018-12-07T17:20:46.595Z,11.41
2018-12-07T17:21:46.757Z,11.36
2018-12-07T17:22:46.712Z,11.43
2018-12-07T17:23:46.661Z,11.36
2018-12-07T17:24:46.777Z,11.47
2018-12-07T17:25:47.074Z,11.44
2018-12-07T17:26:46.935Z,11.41
2018-12-07T17:27:46.988Z,11.44
2018-12-07T17:28:46.966Z,11.37
2018-12-07T17:29:47.051Z,11.36
2018-12-07T17:30:47.056Z,11.44
2018-12-07T17:31:47.164Z,11.44
2018-12-07T17:32:47.462Z,11.43
2018-12-07T17:33:47.355Z,11.40
2018-12-07T17:34:47.440Z,11.40
2018-12-07T17:35:47.402Z,11.45
2018-12-07T17:36:47.577Z,11.37
2018-12-07T17:37:47.550Z,11.45
2018-12-07T17:38:47.817Z,11.36
2018-12-07T17:39:47.642Z,11.40
2018-12-07T17:40:47.704Z,11.47
2018-12-07T17:41:47.777Z,11.37
2018-12-07T17:42:47.876Z,11.41
2018-12-07T17:43:47.986Z,11.41
2018-12-07T17:44:48.012Z,11.37
2018-12-07T17:45:48.308Z,11.30
2018-12-07T17:46:48.192Z,11.30
2018-12-07T17:47:48.359Z,11.23
2018-12-07T17:48:48.388Z,11.18
2018-12-07T17:49:48.389Z,11.04
2018-12-07T17:50:48.335Z,11.14
2018-12-07T17:51:48.392Z,11.10
2018-12-07T17:52:48.569Z,11.00
2018-12-07T17:53:48.489Z,10.97
2018-12-07T17:54:48.615Z,10.97
2018-12-07T17:55:48.724Z,10.94
2018-12-07T17:56:48.916Z,10.94
2018-12-07T17:57:48.798Z,10.94
2018-12-07T17:58:48.802Z,10.87
2018-12-07T17:59:48.868Z,10.96
2018-12-07T18:00:48.989Z,10.84
2018-12-07T18:01:48.993Z,10.87
2018-12-07T18:02:49.060Z,10.84
2018-12-07T18:03:49.109Z,10.76
2018-12-07T18:04:49.173Z,10.78
2018-12-07T18:05:49.256Z,10.69
2018-12-07T18:06:49.311Z,10.74
2018-12-07T18:07:49.747Z,10.75
2018-12-07T18:08:49.433Z,10.69
2018-12-07T18:09:49.646Z,10.67
2018-12-07T18:10:49.713Z,10.63
2018-12-07T18:11:49.605Z,10.51
2018-12-07T18:12:49.748Z,10.42
2018-12-07T18:13:49.940Z,10.41
2018-12-07T18:14:49.841Z,10.41
2018-12-07T18:15:49.854Z,10.30
2018-12-07T18:16:49.984Z,10.38
2018-12-07T18:17:49.988Z,10.35
2018-12-07T18:18:50.047Z,10.23
2018-12-07T18:19:50.181Z,10.16
2018-12-07T18:20:50.315Z,10.20
2018-12-07T18:21:50.247Z,10.17
2018-12-07T18:22:50.489Z,10.17
2018-12-07T18:23:50.552Z,10.17
2018-12-07T18:24:50.415Z,10.17
2018-12-07T18:25:50.713Z,10.10
2018-12-07T18:26:50.540Z,9.98
2018-12-07T18:27:50.616Z,9.94
2018-12-07T18:28:50.662Z,9.87
2018-12-07T18:29:50.744Z,9.86
2018-12-07T18:30:50.958Z,9.86
2018-12-07T18:31:50.922Z,9.79
2018-12-07T18:32:51.173Z,9.82
2018-12-07T18:33:51.198Z,9.69
2018-12-07T18:34:51.035Z,9.76
2018-12-07T18:35:51.250Z,9.72
2018-12-07T18:36:51.235Z,9.76
2018-12-07T18:37:51.262Z,9.65
2018-12-07T18:38:51.725Z,9.58
2018-12-07T18:39:51.568Z,9.56
2018-12-07T18:40:51.564Z,9.51
2018-12-07T18:41:51.493Z,9.51
2018-12-07T18:42:51.568Z,9.54
2018-12-07T18:43:51.646Z,9.65
2018-12-07T18:44:51.751Z,9.50
2018-12-07T18:45:51.744Z,9.43
2018-12-07T18:46:51.815Z,9.48
2018-12-07T18:47:52.050Z,9.51
2018-12-07T18:48:51.895Z,9.48
2018-12-07T18:49:51.959Z,9.51
2018-12-07T18:50:52.015Z,9.46
2018-12-07T18:51:52.105Z,9.48
2018-12-07T18:52:52.183Z,9.44
2018-12-07T18:53:52.548Z,9.44
2018-12-07T18:54:52.428Z,9.40
2018-12-07T18:55:52.558Z,9.36
2018-12-07T18:56:52.634Z,9.32
2018-12-07T18:57:52.564Z,9.39
2018-12-07T18:58:52.539Z,9.32
2018-12-07T18:59:52.821Z,9.36
2018-12-07T19:00:52.894Z,9.23
2018-12-07T19:01:52.824Z,9.19
2018-12-07T19:02:52.888Z,9.18
2018-12-07T19:03:53.023Z,9.16
2018-12-07T19:04:52.947Z,9.03
2018-12-07T19:05:53.080Z,8.95
2018-12-07T19:06:53.025Z,8.92
2018-12-07T19:07:53.124Z,8.88
2018-12-07T19:08:53.208Z,8.89
2018-12-07T19:09:53.200Z,8.88
2018-12-07T19:10:53.406Z,8.82
2018-12-07T19:11:53.329Z,8.79
2018-12-07T19:12:53.462Z,8.71
2018-12-07T19:13:53.432Z,8.73
2018-12-07T19:14:53.505Z,8.70
2018-12-07T19:15:53.556Z,8.76
2018-12-07T19:16:53.826Z,8.71
2018-12-07T19:17:53.747Z,8.67
2018-12-07T19:18:53.843Z,8.61
2018-12-07T19:19:53.801Z,8.53
2018-12-07T19:20:53.913Z,8.67
2018-12-07T19:21:54.116Z,8.66
2018-12-07T19:22:54.093Z,8.56
2018-12-07T19:23:54.041Z,8.51
2018-12-07T19:24:54.277Z,8.51
2018-12-07T19:25:54.447Z,8.46
2018-12-07T19:26:54.451Z,8.41
2018-12-07T19:27:54.401Z,8.49
2018-12-07T19:28:54.377Z,8.49
2018-12-07T19:29:54.408Z,8.45
2018-12-07T19:30:54.620Z,8.49
2018-12-07T19:31:54.602Z,8.46
2018-12-07T19:32:54.704Z,8.45
2018-12-07T19:33:54.977Z,8.46
2018-12-07T19:34:54.903Z,8.49
2018-12-07T19:35:54.790Z,8.46
2018-12-07T19:36:54.973Z,8.38
2018-12-07T19:37:55.179Z,8.41
2018-12-07T19:38:55.079Z,8.44
2018-12-07T19:39:55.223Z,8.38
2018-12-07T19:40:55.321Z,8.41
2018-12-07T19:41:55.146Z,8.42
2018-12-07T19:42:55.253Z,8.38
2018-12-07T19:43:55.266Z,8.36
2018-12-07T19:44:55.553Z,8.41
2018-12-07T19:45:55.599Z,8.38
2018-12-07T19:46:55.837Z,8.36
2018-12-07T19:47:55.785Z,8.37
2018-12-07T19:48:55.643Z,8.46
2018-12-07T19:49:55.908Z,8.45
2018-12-07T19:50:55.881Z,8.36
2018-12-07T19:51:55.762Z,8.31
2018-12-07T19:52:56.128Z,8.41
2018-12-07T19:53:56.025Z,8.36
2018-12-07T19:54:56.076Z,8.42
2018-12-07T19:55:56.209Z,8.42
2018-12-07T19:56:56.140Z,8.30
2018-12-07T19:57:56.302Z,8.46
2018-12-07T19:58:56.190Z,8.42
2018-12-07T19:59:56.355Z,8.34
2018-12-07T20:00:56.354Z,8.36
2018-12-07T20:01:56.475Z,8.44
2018-12-07T20:02:56.500Z,8.44
2018-12-07T20:03:56.760Z,8.44
2018-12-07T20:04:56.765Z,8.38
2018-12-07T20:05:56.788Z,8.44
2018-12-07T20:06:56.685Z,8.45
2018-12-07T20:07:56.890Z,8.46
2018-12-07T20:08:56.796Z,8.56
2018-12-07T20:09:57.067Z,8.55
2018-12-07T20:10:56.919Z,8.51
2018-12-07T20:11:56.987Z,8.49
2018-12-07T20:12:57.128Z,8.51
2018-12-07T20:13:58.030Z,8.52
2018-12-07T20:14:57.163Z,8.45
2018-12-07T20:15:57.223Z,8.56
2018-12-07T20:16:57.686Z,8.55
2018-12-07T20:17:57.571Z,8.58
2018-12-07T20:18:57.412Z,8.61
2018-12-07T20:19:57.586Z,8.49
2018-12-07T20:20:57.662Z,8.45
2018-12-07T20:21:57.628Z,8.52
2018-12-07T20:22:57.659Z,8.58
2018-12-07T20:23:57.756Z,8.53
2018-12-07T20:24:57.776Z,8.56
2018-12-07T20:25:57.972Z,8.60
2018-12-07T20:26:57.896Z,8.64
2018-12-07T20:27:58.003Z,8.64
2018-12-07T20:28:58.024Z,8.64
2018-12-07T20:29:58.152Z,8.63
2018-12-07T20:30:58.179Z,8.61
2018-12-07T20:31:58.257Z,8.69
2018-12-07T20:32:58.595Z,8.64
2018-12-07T20:33:58.385Z,8.67
2018-12-07T20:34:58.388Z,8.63
2018-12-07T20:35:58.724Z,8.56
2018-12-07T20:36:58.639Z,8.64
2018-12-07T20:37:58.753Z,8.64
2018-12-07T20:38:58.766Z,8.64
2018-12-07T20:39:58.786Z,8.64
2018-12-07T20:40:58.969Z,8.67
2018-12-07T20:41:58.816Z,8.67
2018-12-07T20:42:58.978Z,8.61
2018-12-07T20:43:59.029Z,8.70
2018-12-07T20:44:59.067Z,8.61
2018-12-07T20:45:59.299Z,8.61
2018-12-07T20:46:59.200Z,8.66
2018-12-07T20:47:59.269Z,8.74
2018-12-07T20:48:59.417Z,8.66
2018-12-07T20:49:59.305Z,8.69
2018-12-07T20:50:59.417Z,8.67
2018-12-07T20:51:59.620Z,8.71
2018-12-07T20:52:59.547Z,8.66
2018-12-07T20:53:59.582Z,8.61
2018-12-07T20:54:59.946Z,8.56
2018-12-07T20:55:59.732Z,8.55
2018-12-07T20:56:59.811Z,8.58
2018-12-07T20:57:59.892Z,8.52
2018-12-07T20:58:59.868Z,8.49
2018-12-07T20:59:59.902Z,8.53
2018-12-07T21:01:00.160Z,8.53
2018-12-07T21:02:00.260Z,8.55
2018-12-07T21:03:00.220Z,8.49
2018-12-07T21:04:00.226Z,8.49
2018-12-07T21:05:00.206Z,8.53
2018-12-07T21:06:00.479Z,8.51
2018-12-07T21:07:00.403Z,8.53
2018-12-07T21:08:00.703Z,8.45
2018-12-07T21:09:00.511Z,8.46
2018-12-07T21:10:00.529Z,8.46
2018-12-07T21:11:00.792Z,8.41
2018-12-07T21:12:00.630Z,8.45
2018-12-07T21:13:00.880Z,8.42
2018-12-07T21:14:00.762Z,8.36
2018-12-07T21:15:00.879Z,8.33
2018-12-07T21:16:00.874Z,8.36
2018-12-07T21:17:01.095Z,8.41
2018-12-07T21:18:01.023Z,8.38
2018-12-07T21:19:01.343Z,8.38
2018-12-07T21:20:01.369Z,8.34
2018-12-07T21:21:01.249Z,8.34
2018-12-07T21:22:01.398Z,8.37
2018-12-07T21:23:01.298Z,8.38
2018-12-07T21:24:01.535Z,8.36
2018-12-07T21:25:01.551Z,8.31
2018-12-07T21:26:01.483Z,8.38
2018-12-07T21:27:01.617Z,8.33
2018-12-07T21:28:01.603Z,8.33
2018-12-07T21:29:01.737Z,8.24
2018-12-07T21:30:01.753Z,8.23
2018-12-07T21:31:02.005Z,8.19
2018-12-07T21:32:01.998Z,8.20
2018-12-07T21:33:01.931Z,8.13
2018-12-07T21:34:01.979Z,8.06
2018-12-07T21:35:02.201Z,8.30
2018-12-07T21:36:02.124Z,8.27
2018-12-07T21:37:02.198Z,8.31
2018-12-07T21:38:02.215Z,8.33
2018-12-07T21:39:02.271Z,8.34
2018-12-07T21:40:02.559Z,8.41
2018-12-07T21:41:02.661Z,8.38
2018-12-07T21:42:02.456Z,8.44
2018-12-07T21:43:02.682Z,8.41
2018-12-07T21:44:02.572Z,8.44
2018-12-07T21:45:02.818Z,8.46
2018-12-07T21:46:02.733Z,8.42
2018-12-07T21:47:02.813Z,8.46
2018-12-07T21:48:02.816Z,8.33
2018-12-07T21:49:03.127Z,8.18
2018-12-07T21:50:03.074Z,8.06
2018-12-07T21:51:03.004Z,8.00
2018-12-07T21:52:03.099Z,7.75
2018-12-07T21:53:03.162Z,7.76
2018-12-07T21:54:03.213Z,7.72
2018-12-07T21:55:03.513Z,7.72
2018-12-07T21:56:03.330Z,7.63
2018-12-07T21:57:03.435Z,7.66
2018-12-07T21:58:03.684Z,7.57
2018-12-07T21:59:03.533Z,7.50
2018-12-07T22:00:03.593Z,7.43
2018-12-07T22:01:03.613Z,7.43
2018-12-07T22:02:03.698Z,7.33
2018-12-07T22:03:03.952Z,7.32
2018-12-07T22:04:03.948Z,7.33
2018-12-07T22:05:03.861Z,7.25
2018-12-07T22:06:04.063Z,7.18
2018-12-07T22:07:04.051Z,7.17
2018-12-07T22:08:04.045Z,7.20
2018-12-07T22:09:04.269Z,7.17
2018-12-07T22:10:04.348Z,7.17
2018-12-07T22:11:04.460Z,7.21
2018-12-07T22:12:04.346Z,7.15
2018-12-07T22:13:04.647Z,7.17
2018-12-07T22:14:04.385Z,7.13
2018-12-07T22:15:04.583Z,7.13
2018-12-07T22:16:04.513Z,7.10
2018-12-07T22:17:04.573Z,7.17
2018-12-07T22:18:04.988Z,7.14
2018-12-07T22:19:04.685Z,7.11
2018-12-07T22:20:04.745Z,7.06
2018-12-07T22:21:05.100Z,7.10
2018-12-07T22:22:04.875Z,7.07
2018-12-07T22:23:05.161Z,7.13
2018-12-07T22:24:05.244Z,7.14
2018-12-07T22:25:05.045Z,7.10
2018-12-07T22:26:05.201Z,7.18
2018-12-07T22:27:05.170Z,7.07
2018-12-07T22:28:05.316Z,7.10
2018-12-07T22:29:05.345Z,7.18
2018-12-07T22:30:05.400Z,7.15
2018-12-07T22:31:05.682Z,7.24
2018-12-07T22:32:05.532Z,7.15
2018-12-07T22:33:05.809Z,7.18
2018-12-07T22:34:05.699Z,7.17
2018-12-07T22:35:05.650Z,7.20
2018-12-07T22:36:06.027Z,7.21
2018-12-07T22:37:05.873Z,7.28
2018-12-07T22:38:05.856Z,7.20
2018-12-07T22:39:05.891Z,7.25
2018-12-07T22:40:06.356Z,7.29
2018-12-07T22:41:06.098Z,7.38
2018-12-07T22:42:06.259Z,7.33
2018-12-07T22:43:06.150Z,7.40
2018-12-07T22:44:06.191Z,7.36
2018-12-07T22:45:06.450Z,7.29
2018-12-07T22:46:06.407Z,7.45
2018-12-07T22:47:06.397Z,7.43
2018-12-07T22:48:06.575Z,7.45
2018-12-07T22:49:06.501Z,7.43
2018-12-07T22:50:06.555Z,7.42
2018-12-07T22:51:06.623Z,7.50
2018-12-07T22:52:06.683Z,7.50
2018-12-07T22:53:06.735Z,7.54
2018-12-07T22:54:06.798Z,7.58
2018-12-07T22:55:06.855Z,7.56
2018-12-07T22:56:06.923Z,7.56
2018-12-07T22:57:06.995Z,7.60
2018-12-07T22:58:07.036Z,7.73
2018-12-07T22:59:07.096Z,7.67
2018-12-07T23:00:07.183Z,7.73
2018-12-07T23:01:07.315Z,7.73
2018-12-07T23:02:07.281Z,7.70
2018-12-07T23:03:07.336Z,7.72
2018-12-07T23:04:07.395Z,7.70
2018-12-07T23:05:07.455Z,7.72
2018-12-07T23:06:07.596Z,7.79
2018-12-07T23:07:07.588Z,7.77
2018-12-07T23:08:07.636Z,7.76
2018-12-07T23:09:07.700Z,7.82
2018-12-07T23:10:07.757Z,7.83
2018-12-07T23:11:07.830Z,7.80
2018-12-07T23:12:07.896Z,7.83
2018-12-07T23:13:07.936Z,7.83
2018-12-07T23:14:08.000Z,7.85
2018-12-07T23:15:08.060Z,7.82
2018-12-07T23:16:08.212Z,7.80
2018-12-07T23:17:08.180Z,7.75
